sensor_id;sensor_type;location;lat;lon;timestamp;pressure;altitude;pressure_sealevel;temperature;humidity
8637;BME280;4356;49.068;8.658;2023-12-29T00:00:01;99960.16;;;14.70;47.56
8637;BME280;4356;49.068;8.658;2023-12-29T00:02:26;99956.22;;;14.73;47.56
8637;BME280;4356;49.068;8.658;2023-12-29T00:04:51;99936.16;;;14.61;47.57
8637;BME280;4356;49.068;8.658;2023-12-29T00:07:17;99948.69;;;14.68;47.45
8637;BME280;4356;49.068;8.658;2023-12-29T00:09:42;99950.81;;;14.73;47.38
8637;BME280;4356;49.068;8.658;2023-12-29T00:12:08;99940.53;;;14.62;47.46
8637;BME280;4356;49.068;8.658;2023-12-29T00:14:36;99940.75;;;14.60;47.55
8637;BME280;4356;49.068;8.658;2023-12-29T00:17:02;99966.22;;;14.72;47.35
8637;BME280;4356;49.068;8.658;2023-12-29T00:19:28;99970.13;;;14.70;47.28
8637;BME280;4356;49.068;8.658;2023-12-29T00:21:53;99963.09;;;14.75;47.60
8637;BME280;4356;49.068;8.658;2023-12-29T00:24:19;99950.97;;;14.65;47.43
8637;BME280;4356;49.068;8.658;2023-12-29T00:26:45;99946.38;;;14.65;47.78
8637;BME280;4356;49.068;8.658;2023-12-29T00:29:10;99962.47;;;14.73;47.34
8637;BME280;4356;49.068;8.658;2023-12-29T00:31:36;99947.91;;;14.74;47.35
8637;BME280;4356;49.068;8.658;2023-12-29T00:34:01;99930.53;;;14.62;47.28
8637;BME280;4356;49.068;8.658;2023-12-29T00:36:26;99960.19;;;14.77;47.15
8637;BME280;4356;49.068;8.658;2023-12-29T00:38:52;99951.63;;;14.73;47.33
8637;BME280;4356;49.068;8.658;2023-12-29T00:41:17;99948.50;;;14.70;47.40
8637;BME280;4356;49.068;8.658;2023-12-29T00:43:42;99949.13;;;14.72;47.16
8637;BME280;4356;49.068;8.658;2023-12-29T00:46:08;99952.69;;;14.72;47.34
8637;BME280;4356;49.068;8.658;2023-12-29T00:48:34;99937.88;;;14.68;46.94
8637;BME280;4356;49.068;8.658;2023-12-29T00:51:03;99954.16;;;14.75;47.22
8637;BME280;4356;49.068;8.658;2023-12-29T00:53:29;99949.13;;;14.72;47.43
8637;BME280;4356;49.068;8.658;2023-12-29T00:55:56;99940.63;;;14.75;47.54
8637;BME280;4356;49.068;8.658;2023-12-29T00:58:21;99947.28;;;14.72;47.47
8637;BME280;4356;49.068;8.658;2023-12-29T01:00:47;99927.66;;;14.64;47.58
8637;BME280;4356;49.068;8.658;2023-12-29T01:03:12;99926.22;;;14.68;47.56
8637;BME280;4356;49.068;8.658;2023-12-29T01:05:38;99917.28;;;14.67;47.19
8637;BME280;4356;49.068;8.658;2023-12-29T01:08:04;99930.00;;;14.73;47.48
8637;BME280;4356;49.068;8.658;2023-12-29T01:10:29;99920.22;;;14.72;47.64
8637;BME280;4356;49.068;8.658;2023-12-29T01:12:55;99914.38;;;14.69;47.30
8637;BME280;4356;49.068;8.658;2023-12-29T01:15:20;99921.06;;;14.73;47.68
8637;BME280;4356;49.068;8.658;2023-12-29T01:17:46;99914.63;;;14.74;47.50
8637;BME280;4356;49.068;8.658;2023-12-29T01:20:12;99898.94;;;14.63;47.36
8637;BME280;4356;49.068;8.658;2023-12-29T01:22:37;99902.69;;;14.62;47.59
8637;BME280;4356;49.068;8.658;2023-12-29T01:25:03;99923.78;;;14.73;47.59
8637;BME280;4356;49.068;8.658;2023-12-29T01:27:29;99917.22;;;14.61;47.29
8637;BME280;4356;49.068;8.658;2023-12-29T01:29:54;99919.09;;;14.60;47.27
8637;BME280;4356;49.068;8.658;2023-12-29T01:32:21;99935.81;;;14.70;47.72
8637;BME280;4356;49.068;8.658;2023-12-29T01:34:46;99946.66;;;14.77;47.64
8637;BME280;4356;49.068;8.658;2023-12-29T01:37:12;99926.66;;;14.71;47.43
8637;BME280;4356;49.068;8.658;2023-12-29T01:39:37;99927.09;;;14.75;47.67
8637;BME280;4356;49.068;8.658;2023-12-29T01:42:03;99935.03;;;14.76;47.32
8637;BME280;4356;49.068;8.658;2023-12-29T01:44:31;99928.78;;;14.76;47.54
8637;BME280;4356;49.068;8.658;2023-12-29T01:46:59;99897.00;;;14.57;47.55
8637;BME280;4356;49.068;8.658;2023-12-29T01:49:26;99941.25;;;14.77;47.33
8637;BME280;4356;49.068;8.658;2023-12-29T01:51:57;99908.66;;;14.57;47.33
8637;BME280;4356;49.068;8.658;2023-12-29T01:54:25;99899.09;;;14.55;47.84
8637;BME280;4356;49.068;8.658;2023-12-29T01:56:54;99924.16;;;14.70;47.31
8637;BME280;4356;49.068;8.658;2023-12-29T01:59:21;99937.09;;;14.74;47.42
8637;BME280;4356;49.068;8.658;2023-12-29T02:01:47;99939.41;;;14.77;47.49
8637;BME280;4356;49.068;8.658;2023-12-29T02:04:13;99888.88;;;14.57;47.37
8637;BME280;4356;49.068;8.658;2023-12-29T02:06:39;99909.81;;;14.69;47.48
8637;BME280;4356;49.068;8.658;2023-12-29T02:09:05;99903.56;;;14.69;47.34
8637;BME280;4356;49.068;8.658;2023-12-29T02:11:31;99907.91;;;14.70;47.46
8637;BME280;4356;49.068;8.658;2023-12-29T02:13:57;99919.63;;;14.77;47.19
8637;BME280;4356;49.068;8.658;2023-12-29T02:19:38;99910.69;;;14.76;47.23
8637;BME280;4356;49.068;8.658;2023-12-29T02:22:05;99896.66;;;14.66;47.67
8637;BME280;4356;49.068;8.658;2023-12-29T02:24:34;99902.75;;;14.75;47.43
8637;BME280;4356;49.068;8.658;2023-12-29T02:27:34;99898.38;;;14.74;47.22
8637;BME280;4356;49.068;8.658;2023-12-29T02:32:46;99903.16;;;14.72;47.31
8637;BME280;4356;49.068;8.658;2023-12-29T02:35:21;99871.84;;;14.56;47.35
8637;BME280;4356;49.068;8.658;2023-12-29T02:37:48;99887.97;;;14.71;47.52
8637;BME280;4356;49.068;8.658;2023-12-29T02:40:14;99879.41;;;14.67;47.35
8637;BME280;4356;49.068;8.658;2023-12-29T02:42:47;99877.28;;;14.63;47.57
8637;BME280;4356;49.068;8.658;2023-12-29T02:45:16;99856.69;;;14.62;47.38
8637;BME280;4356;49.068;8.658;2023-12-29T02:47:42;99836.25;;;14.53;47.54
8637;BME280;4356;49.068;8.658;2023-12-29T02:50:09;99850.66;;;14.60;47.36
8637;BME280;4356;49.068;8.658;2023-12-29T02:52:34;99870.47;;;14.67;47.54
8637;BME280;4356;49.068;8.658;2023-12-29T02:55:00;99857.16;;;14.72;47.53
8637;BME280;4356;49.068;8.658;2023-12-29T02:57:25;99862.78;;;14.70;47.32
8637;BME280;4356;49.068;8.658;2023-12-29T02:59:51;99845.03;;;14.61;47.37
8637;BME280;4356;49.068;8.658;2023-12-29T03:02:16;99858.84;;;14.73;47.43
8637;BME280;4356;49.068;8.658;2023-12-29T03:04:42;99829.84;;;14.60;47.69
8637;BME280;4356;49.068;8.658;2023-12-29T03:07:07;99849.47;;;14.69;47.46
8637;BME280;4356;49.068;8.658;2023-12-29T03:09:33;99862.97;;;14.69;47.63
8637;BME280;4356;49.068;8.658;2023-12-29T03:11:59;99831.84;;;14.52;47.72
8637;BME280;4356;49.068;8.658;2023-12-29T03:14:24;99856.53;;;14.70;47.46
8637;BME280;4356;49.068;8.658;2023-12-29T03:16:50;99867.16;;;14.71;47.64
8637;BME280;4356;49.068;8.658;2023-12-29T03:19:15;99834.19;;;14.55;47.37
8637;BME280;4356;49.068;8.658;2023-12-29T03:21:41;99868.84;;;14.72;47.66
8637;BME280;4356;49.068;8.658;2023-12-29T03:24:06;99869.03;;;14.71;47.41
8637;BME280;4356;49.068;8.658;2023-12-29T03:26:32;99871.75;;;14.71;47.40
8637;BME280;4356;49.068;8.658;2023-12-29T03:28:57;99878.41;;;14.75;47.26
8637;BME280;4356;49.068;8.658;2023-12-29T03:31:23;99881.31;;;14.73;47.79
8637;BME280;4356;49.068;8.658;2023-12-29T03:33:48;99862.34;;;14.67;47.88
8637;BME280;4356;49.068;8.658;2023-12-29T03:36:14;99870.50;;;14.73;47.68
8637;BME280;4356;49.068;8.658;2023-12-29T03:38:39;99851.28;;;14.62;47.71
8637;BME280;4356;49.068;8.658;2023-12-29T03:41:04;99846.91;;;14.61;47.79
8637;BME280;4356;49.068;8.658;2023-12-29T03:43:30;99850.88;;;14.65;47.80
8637;BME280;4356;49.068;8.658;2023-12-29T03:45:55;99849.84;;;14.66;47.55
8637;BME280;4356;49.068;8.658;2023-12-29T03:48:21;99852.41;;;14.74;47.62
8637;BME280;4356;49.068;8.658;2023-12-29T03:50:47;99820.66;;;14.55;47.50
8637;BME280;4356;49.068;8.658;2023-12-29T03:53:12;99828.16;;;14.59;47.63
8637;BME280;4356;49.068;8.658;2023-12-29T03:55:40;99848.81;;;14.67;47.64
8637;BME280;4356;49.068;8.658;2023-12-29T03:58:05;99855.75;;;14.76;47.66
8637;BME280;4356;49.068;8.658;2023-12-29T04:00:31;99863.84;;;14.76;47.76
8637;BME280;4356;49.068;8.658;2023-12-29T04:02:57;99839.63;;;14.61;47.78
8637;BME280;4356;49.068;8.658;2023-12-29T04:05:25;99857.38;;;14.70;47.65
8637;BME280;4356;49.068;8.658;2023-12-29T04:07:51;99839.88;;;14.66;47.33
8637;BME280;4356;49.068;8.658;2023-12-29T04:10:16;99864.88;;;14.75;47.49
8637;BME280;4356;49.068;8.658;2023-12-29T04:12:42;99832.09;;;14.57;47.44
8637;BME280;4356;49.068;8.658;2023-12-29T04:15:07;99831.09;;;14.64;47.41
8637;BME280;4356;49.068;8.658;2023-12-29T04:17:33;99860.31;;;14.75;47.95
8637;BME280;4356;49.068;8.658;2023-12-29T04:19:58;99863.66;;;14.77;47.39
8637;BME280;4356;49.068;8.658;2023-12-29T04:22:25;99831.31;;;14.63;48.03
8637;BME280;4356;49.068;8.658;2023-12-29T04:24:50;99853.25;;;14.74;47.78
8637;BME280;4356;49.068;8.658;2023-12-29T04:27:17;99859.28;;;14.76;47.87
8637;BME280;4356;49.068;8.658;2023-12-29T04:29:44;99866.16;;;14.79;48.15
8637;BME280;4356;49.068;8.658;2023-12-29T04:32:10;99856.97;;;14.73;48.21
8637;BME280;4356;49.068;8.658;2023-12-29T04:34:35;99850.69;;;14.66;47.82
8637;BME280;4356;49.068;8.658;2023-12-29T04:37:01;99871.78;;;14.77;47.64
8637;BME280;4356;49.068;8.658;2023-12-29T04:39:26;99863.22;;;14.74;47.95
8637;BME280;4356;49.068;8.658;2023-12-29T04:41:52;99858.59;;;14.68;47.61
8637;BME280;4356;49.068;8.658;2023-12-29T04:44:17;99853.19;;;14.68;47.91
8637;BME280;4356;49.068;8.658;2023-12-29T04:46:43;99875.13;;;14.79;47.66
8637;BME280;4356;49.068;8.658;2023-12-29T04:49:08;99867.22;;;14.78;47.48
8637;BME280;4356;49.068;8.658;2023-12-29T04:51:33;99858.66;;;14.74;47.75
8637;BME280;4356;49.068;8.658;2023-12-29T04:53:59;99865.50;;;14.77;47.81
8637;BME280;4356;49.068;8.658;2023-12-29T04:56:24;99846.13;;;14.67;48.02
8637;BME280;4356;49.068;8.658;2023-12-29T04:58:51;99873.47;;;14.78;47.86
8637;BME280;4356;49.068;8.658;2023-12-29T05:01:17;99857.38;;;14.70;47.66
8637;BME280;4356;49.068;8.658;2023-12-29T05:03:42;99868.44;;;14.75;47.68
8637;BME280;4356;49.068;8.658;2023-12-29T05:06:08;99858.59;;;14.68;48.01
8637;BME280;4356;49.068;8.658;2023-12-29T05:08:33;99875.97;;;14.80;47.72
8637;BME280;4356;49.068;8.658;2023-12-29T05:11:00;99857.38;;;14.70;47.85
8637;BME280;4356;49.068;8.658;2023-12-29T05:13:25;99879.88;;;14.77;48.10
8637;BME280;4356;49.068;8.658;2023-12-29T05:15:51;99842.31;;;14.55;47.84
8637;BME280;4356;49.068;8.658;2023-12-29T05:18:16;99855.22;;;14.59;47.71
8637;BME280;4356;49.068;8.658;2023-12-29T05:20:42;99874.28;;;14.79;47.71
8637;BME280;4356;49.068;8.658;2023-12-29T05:23:08;99855.66;;;14.63;47.68
8637;BME280;4356;49.068;8.658;2023-12-29T05:25:33;99879.88;;;14.77;47.68
8637;BME280;4356;49.068;8.658;2023-12-29T05:27:59;99875.53;;;14.76;48.02
8637;BME280;4356;49.068;8.658;2023-12-29T05:30:24;99858.16;;;14.64;47.81
8637;BME280;4356;49.068;8.658;2023-12-29T05:32:51;99875.31;;;14.78;47.93
8637;BME280;4356;49.068;8.658;2023-12-29T05:35:17;99834.78;;;14.57;47.87
8637;BME280;4356;49.068;8.658;2023-12-29T05:37:42;99879.03;;;14.77;47.62
8637;BME280;4356;49.068;8.658;2023-12-29T05:40:08;99872.63;;;14.78;47.96
8637;BME280;4356;49.068;8.658;2023-12-29T05:42:33;99870.94;;;14.77;48.09
8637;BME280;4356;49.068;8.658;2023-12-29T05:44:59;99870.13;;;14.76;48.17
8637;BME280;4356;49.068;8.658;2023-12-29T05:47:25;99867.00;;;14.79;47.63
8637;BME280;4356;49.068;8.658;2023-12-29T05:49:50;99862.81;;;14.77;48.13
8637;BME280;4356;49.068;8.658;2023-12-29T05:52:15;99850.09;;;14.71;47.55
8637;BME280;4356;49.068;8.658;2023-12-29T05:54:41;99835.44;;;14.59;47.99
8637;BME280;4356;49.068;8.658;2023-12-29T05:57:06;99829.22;;;14.58;47.81
8637;BME280;4356;49.068;8.658;2023-12-29T05:59:32;99834.00;;;14.63;47.84
8637;BME280;4356;49.068;8.658;2023-12-29T06:01:57;99815.06;;;14.56;47.78
8637;BME280;4356;49.068;8.658;2023-12-29T06:04:22;99844.50;;;14.72;47.71
8637;BME280;4356;49.068;8.658;2023-12-29T06:06:48;99840.94;;;14.72;47.84
8637;BME280;4356;49.068;8.658;2023-12-29T06:09:14;99859.28;;;14.76;47.59
8637;BME280;4356;49.068;8.658;2023-12-29T06:11:39;99851.75;;;14.72;47.43
8637;BME280;4356;49.068;8.658;2023-12-29T06:14:05;99826.94;;;14.62;47.99
8637;BME280;4356;49.068;8.658;2023-12-29T06:16:30;99863.66;;;14.77;47.30
8637;BME280;4356;49.068;8.658;2023-12-29T06:18:56;99860.09;;;14.77;47.45
8637;BME280;4356;49.068;8.658;2023-12-29T06:21:21;99858.66;;;14.74;47.43
8637;BME280;4356;49.068;8.658;2023-12-29T06:23:47;99858.84;;;14.73;48.01
8637;BME280;4356;49.068;8.658;2023-12-29T06:26:17;99863.22;;;14.74;47.47
8637;BME280;4356;49.068;8.658;2023-12-29T06:28:43;99850.75;;;14.73;47.75
8637;BME280;4356;49.068;8.658;2023-12-29T06:31:09;99841.94;;;14.64;47.67
8637;BME280;4356;49.068;8.658;2023-12-29T06:33:35;99852.19;;;14.75;47.93
8637;BME280;4356;49.068;8.658;2023-12-29T06:36:01;99863.84;;;14.76;47.74
8637;BME280;4356;49.068;8.658;2023-12-29T06:38:26;99867.41;;;14.76;47.82
8637;BME280;4356;49.068;8.658;2023-12-29T06:40:51;99855.09;;;14.74;47.64
8637;BME280;4356;49.068;8.658;2023-12-29T06:43:17;99823.53;;;14.53;48.20
8637;BME280;4356;49.068;8.658;2023-12-29T06:45:42;99840.47;;;14.62;48.05
8637;BME280;4356;49.068;8.658;2023-12-29T06:48:08;99860.50;;;14.74;47.98
8637;BME280;4356;49.068;8.658;2023-12-29T06:50:33;99859.47;;;14.75;47.86
8637;BME280;4356;49.068;8.658;2023-12-29T06:52:59;99853.25;;;14.74;47.66
8637;BME280;4356;49.068;8.658;2023-12-29T06:55:25;99844.50;;;14.72;47.89
8637;BME280;4356;49.068;8.658;2023-12-29T06:57:51;99834.66;;;14.65;47.75
8637;BME280;4356;49.068;8.658;2023-12-29T07:00:17;99831.94;;;14.65;48.27
8637;BME280;4356;49.068;8.658;2023-12-29T07:02:45;99838.22;;;14.65;47.94
8637;BME280;4356;49.068;8.658;2023-12-29T07:05:10;99846.75;;;14.69;47.81
8637;BME280;4356;49.068;8.658;2023-12-29T07:07:35;99826.75;;;14.63;47.97
8637;BME280;4356;49.068;8.658;2023-12-29T07:10:03;99832.16;;;14.63;48.06
8637;BME280;4356;49.068;8.658;2023-12-29T07:12:28;99847.84;;;14.74;47.72
8637;BME280;4356;49.068;8.658;2023-12-29T07:14:54;99815.88;;;14.57;47.99
8637;BME280;4356;49.068;8.658;2023-12-29T07:17:19;99856.75;;;14.75;48.30
8637;BME280;4356;49.068;8.658;2023-12-29T07:19:45;99842.63;;;14.73;48.37
8637;BME280;4356;49.068;8.658;2023-12-29T07:22:10;99814.63;;;14.53;48.16
8637;BME280;4356;49.068;8.658;2023-12-29T07:24:36;99847.84;;;14.74;48.03
8637;BME280;4356;49.068;8.658;2023-12-29T07:27:02;99814.84;;;14.58;48.25
8637;BME280;4356;49.068;8.658;2023-12-29T07:29:27;99825.91;;;14.63;48.22
8637;BME280;4356;49.068;8.658;2023-12-29T07:31:53;99848.66;;;14.75;47.67
8637;BME280;4356;49.068;8.658;2023-12-29T07:34:19;99855.75;;;14.76;48.04
8637;BME280;4356;49.068;8.658;2023-12-29T07:36:45;99843.22;;;14.75;47.63
8637;BME280;4356;49.068;8.658;2023-12-29T07:39:10;99839.94;;;14.73;48.21
8637;BME280;4356;49.068;8.658;2023-12-29T07:41:42;99854.91;;;14.75;47.78
8637;BME280;4356;49.068;8.658;2023-12-29T07:44:10;99835.69;;;14.64;48.35
8637;BME280;4356;49.068;8.658;2023-12-29T07:46:37;99832.16;;;14.63;48.15
8637;BME280;4356;49.068;8.658;2023-12-29T07:49:03;99831.94;;;14.65;48.08
8637;BME280;4356;49.068;8.658;2023-12-29T07:51:29;99845.72;;;14.70;47.75
8637;BME280;4356;49.068;8.658;2023-12-29T07:53:54;99851.97;;;14.70;48.11
8637;BME280;4356;49.068;8.658;2023-12-29T07:56:20;99849.91;;;14.72;47.92
8637;BME280;4356;49.068;8.658;2023-12-29T07:58:45;99866.13;;;14.72;47.89
8637;BME280;4356;49.068;8.658;2023-12-29T08:01:11;99844.19;;;14.61;47.76
8637;BME280;4356;49.068;8.658;2023-12-29T08:03:36;99867.59;;;14.75;47.99
8637;BME280;4356;49.068;8.658;2023-12-29T08:06:02;99862.13;;;14.68;48.02
8637;BME280;4356;49.068;8.658;2023-12-29T08:08:29;99846.09;;;14.60;48.11
8637;BME280;4356;49.068;8.658;2023-12-29T08:10:55;99864.44;;;14.71;47.92
8637;BME280;4356;49.068;8.658;2023-12-29T08:13:20;99865.72;;;14.75;48.16
8637;BME280;4356;49.068;8.658;2023-12-29T08:15:45;99869.47;;;14.74;48.00
8637;BME280;4356;49.068;8.658;2023-12-29T08:18:11;99861.28;;;14.68;48.20
8637;BME280;4356;49.068;8.658;2023-12-29T08:20:36;99872.19;;;14.74;48.43
8637;BME280;4356;49.068;8.658;2023-12-29T08:23:02;99879.03;;;14.77;48.38
8637;BME280;4356;49.068;8.658;2023-12-29T08:25:28;99857.78;;;14.67;48.38
8637;BME280;4356;49.068;8.658;2023-12-29T08:27:54;99871.47;;;14.66;48.44
8637;BME280;4356;49.068;8.658;2023-12-29T08:30:19;99887.38;;;14.75;48.26
8637;BME280;4356;49.068;8.658;2023-12-29T08:32:45;99877.59;;;14.74;48.12
8637;BME280;4356;49.068;8.658;2023-12-29T08:35:10;99893.41;;;14.77;48.45
8637;BME280;4356;49.068;8.658;2023-12-29T08:37:35;99884.28;;;14.78;48.42
8637;BME280;4356;49.068;8.658;2023-12-29T08:40:01;99894.63;;;14.75;48.03
8637;BME280;4356;49.068;8.658;2023-12-29T08:42:27;99882.75;;;14.69;48.18
8637;BME280;4356;49.068;8.658;2023-12-29T08:44:53;99900.50;;;14.78;48.19
8637;BME280;4356;49.068;8.658;2023-12-29T08:47:18;99890.28;;;14.74;48.06
8637;BME280;4356;49.068;8.658;2023-12-29T08:49:44;99872.28;;;14.60;48.23
8637;BME280;4356;49.068;8.658;2023-12-29T08:52:09;99886.91;;;14.72;48.49
8637;BME280;4356;49.068;8.658;2023-12-29T08:54:35;99890.69;;;14.71;48.09
8637;BME280;4356;49.068;8.658;2023-12-29T08:57:02;99910.94;;;14.81;48.14
8637;BME280;4356;49.068;8.658;2023-12-29T08:59:28;99904.03;;;14.79;48.08
8637;BME280;4356;49.068;8.658;2023-12-29T09:01:53;99906.16;;;14.83;47.85
8637;BME280;4356;49.068;8.658;2023-12-29T09:04:19;99880.50;;;14.73;47.73
8637;BME280;4356;49.068;8.658;2023-12-29T09:06:44;99904.47;;;14.82;48.19
8637;BME280;4356;49.068;8.658;2023-12-29T09:09:10;99901.97;;;14.81;47.91
8637;BME280;4356;49.068;8.658;2023-12-29T09:11:46;99893.00;;;14.80;47.66
8637;BME280;4356;49.068;8.658;2023-12-29T09:14:13;99903.44;;;14.83;47.53
8637;BME280;4356;49.068;8.658;2023-12-29T09:16:38;99899.66;;;14.78;47.95
8637;BME280;4356;49.068;8.658;2023-12-29T09:19:05;99912.59;;;14.82;47.94
8637;BME280;4356;49.068;8.658;2023-12-29T09:21:30;99913.44;;;14.83;48.25
8637;BME280;4356;49.068;8.658;2023-12-29T09:23:56;99916.97;;;14.83;48.34
8637;BME280;4356;49.068;8.658;2023-12-29T09:26:22;99920.13;;;14.87;48.24
8637;BME280;4356;49.068;8.658;2023-12-29T09:28:47;99912.84;;;14.87;47.90
8637;BME280;4356;49.068;8.658;2023-12-29T09:31:13;99912.66;;;14.89;47.96
8637;BME280;4356;49.068;8.658;2023-12-29T09:33:38;99887.38;;;14.75;47.80
8637;BME280;4356;49.068;8.658;2023-12-29T09:36:04;99922.06;;;14.93;47.75
8637;BME280;4356;49.068;8.658;2023-12-29T09:38:30;99911.59;;;14.90;48.02
8637;BME280;4356;49.068;8.658;2023-12-29T09:40:59;99904.75;;;14.94;47.62
8637;BME280;4356;49.068;8.658;2023-12-29T09:43:31;99907.91;;;14.97;48.14
8637;BME280;4356;49.068;8.658;2023-12-29T09:45:58;99910.47;;;15.05;47.83
8637;BME280;4356;49.068;8.658;2023-12-29T09:48:24;99907.34;;;15.08;48.27
8637;BME280;4356;49.068;8.658;2023-12-29T09:50:52;99907.34;;;15.08;48.00
8637;BME280;4356;49.068;8.658;2023-12-29T09:53:20;99917.56;;;15.13;47.72
8637;BME280;4356;49.068;8.658;2023-12-29T09:55:48;99911.78;;;15.16;47.59
8637;BME280;4356;49.068;8.658;2023-12-29T09:58:15;99907.44;;;15.21;48.12
8637;BME280;4356;49.068;8.658;2023-12-29T10:00:43;99895.13;;;15.19;47.63
8637;BME280;4356;49.068;8.658;2023-12-29T10:03:11;99904.31;;;15.24;47.82
8637;BME280;4356;49.068;8.658;2023-12-29T10:05:37;99907.25;;;15.29;47.52
8637;BME280;4356;49.068;8.658;2023-12-29T10:08:02;99903.31;;;15.32;47.82
8637;BME280;4356;49.068;8.658;2023-12-29T10:10:30;99896.41;;;15.29;47.68
8637;BME280;4356;49.068;8.658;2023-12-29T10:12:57;99893.72;;;15.29;48.06
8637;BME280;4356;49.068;8.658;2023-12-29T10:18:10;99890.63;;;15.32;47.80
8637;BME280;4356;49.068;8.658;2023-12-29T10:20:47;99884.78;;;15.35;47.58
8637;BME280;4356;49.068;8.658;2023-12-29T10:23:44;99886.44;;;15.36;47.63
8637;BME280;4356;49.068;8.658;2023-12-29T10:26:15;99861.84;;;15.25;47.76
8637;BME280;4356;49.068;8.658;2023-12-29T10:28:41;99878.16;;;15.38;47.60
8637;BME280;4356;49.068;8.658;2023-12-29T10:31:09;99866.03;;;15.34;47.68
8637;BME280;4356;49.068;8.658;2023-12-29T10:33:35;99866.94;;;15.41;47.56
8637;BME280;4356;49.068;8.658;2023-12-29T10:36:01;99857.09;;;15.40;47.42
8637;BME280;4356;49.068;8.658;2023-12-29T10:38:32;99848.97;;;15.40;47.66
8637;BME280;4356;49.068;8.658;2023-12-29T10:41:15;99843.63;;;15.47;47.64
8637;BME280;4356;49.068;8.658;2023-12-29T10:43:42;99853.41;;;15.48;47.59
8637;BME280;4356;49.068;8.658;2023-12-29T10:46:09;99852.59;;;15.47;47.60
8637;BME280;4356;49.068;8.658;2023-12-29T10:48:35;99837.16;;;15.48;47.51
8637;BME280;4356;49.068;8.658;2023-12-29T10:51:04;99839.44;;;15.44;47.69
8637;BME280;4356;49.068;8.658;2023-12-29T10:53:32;99816.25;;;15.35;47.44
8637;BME280;4356;49.068;8.658;2023-12-29T10:55:57;99810.63;;;15.36;47.55
8637;BME280;4356;49.068;8.658;2023-12-29T10:58:27;99824.88;;;15.52;47.58
8637;BME280;4356;49.068;8.658;2023-12-29T11:00:57;99823.66;;;15.54;47.59
8637;BME280;4356;49.068;8.658;2023-12-29T11:03:22;99800.09;;;15.41;47.37
8637;BME280;4356;49.068;8.658;2023-12-29T11:05:48;99821.78;;;15.61;47.31
8637;BME280;4356;49.068;8.658;2023-12-29T11:08:19;99816.59;;;15.66;47.30
8637;BME280;4356;49.068;8.658;2023-12-29T11:10:46;99829.53;;;15.71;47.32
8637;BME280;4356;49.068;8.658;2023-12-29T11:13:12;99814.28;;;15.70;47.27
8637;BME280;4356;49.068;8.658;2023-12-29T11:15:42;99828.06;;;15.75;46.78
8637;BME280;4356;49.068;8.658;2023-12-29T11:18:09;99817.00;;;15.76;46.82
8637;BME280;4356;49.068;8.658;2023-12-29T11:20:38;99812.00;;;15.73;47.03
8637;BME280;4356;49.068;8.658;2023-12-29T11:23:04;99799.69;;;15.64;46.82
8637;BME280;4356;49.068;8.658;2023-12-29T11:25:32;99801.59;;;15.70;47.18
8637;BME280;4356;49.068;8.658;2023-12-29T11:27:59;99812.44;;;15.77;47.01
8637;BME280;4356;49.068;8.658;2023-12-29T11:30:25;99815.97;;;15.84;46.61
8637;BME280;4356;49.068;8.658;2023-12-29T11:32:58;99814.53;;;15.88;46.96
8637;BME280;4356;49.068;8.658;2023-12-29T11:35:29;99810.78;;;15.89;46.82
8637;BME280;4356;49.068;8.658;2023-12-29T11:41:16;99807.03;;;15.90;46.89
8637;BME280;4356;49.068;8.658;2023-12-29T11:43:44;99808.69;;;15.91;46.52
8637;BME280;4356;49.068;8.658;2023-12-29T11:46:39;99812.44;;;15.96;46.46
8637;BME280;4356;49.068;8.658;2023-12-29T11:49:08;99799.53;;;15.92;46.62
8637;BME280;4356;49.068;8.658;2023-12-29T11:51:45;99801.59;;;15.96;46.72
8637;BME280;4356;49.068;8.658;2023-12-29T11:54:22;99807.66;;;15.98;46.58
8637;BME280;4356;49.068;8.658;2023-12-29T11:56:47;99803.06;;;15.99;46.50
8637;BME280;4356;49.068;8.658;2023-12-29T11:59:23;99799.72;;;15.97;46.78
8637;BME280;4356;49.068;8.658;2023-12-29T12:01:51;99801.44;;;15.98;46.62
8637;BME280;4356;49.068;8.658;2023-12-29T12:04:36;99792.44;;;15.97;46.85
8637;BME280;4356;49.068;8.658;2023-12-29T12:07:03;99789.94;;;15.96;46.74
8637;BME280;4356;49.068;8.658;2023-12-29T12:09:29;99793.69;;;15.95;46.68
8637;BME280;4356;49.068;8.658;2023-12-29T12:11:55;99792.84;;;15.94;46.92
8637;BME280;4356;49.068;8.658;2023-12-29T12:17:12;99790.56;;;15.91;46.69
8637;BME280;4356;49.068;8.658;2023-12-29T12:19:52;99784.28;;;15.91;46.87
8637;BME280;4356;49.068;8.658;2023-12-29T12:22:18;99780.78;;;15.90;46.63
8637;BME280;4356;49.068;8.658;2023-12-29T12:24:45;99784.50;;;15.89;46.93
8637;BME280;4356;49.068;8.658;2023-12-29T12:27:12;99793.28;;;15.91;46.69
8637;BME280;4356;49.068;8.658;2023-12-29T12:29:37;99784.50;;;15.89;46.64
8637;BME280;4356;49.068;8.658;2023-12-29T12:32:03;99781.38;;;15.86;46.71
8637;BME280;4356;49.068;8.658;2023-12-29T12:34:37;99782.00;;;15.88;47.08
8637;BME280;4356;49.068;8.658;2023-12-29T12:37:03;99787.44;;;15.88;46.75
8637;BME280;4356;49.068;8.658;2023-12-29T12:39:41;99786.59;;;15.87;46.86
8637;BME280;4356;49.068;8.658;2023-12-29T12:42:06;99783.88;;;15.87;47.07
8637;BME280;4356;49.068;8.658;2023-12-29T12:44:32;99777.03;;;15.85;46.73
8637;BME280;4356;49.068;8.658;2023-12-29T12:46:59;99775.97;;;15.86;46.92
8637;BME280;4356;49.068;8.658;2023-12-29T12:49:28;99777.22;;;15.83;47.23
8637;BME280;4356;49.068;8.658;2023-12-29T12:51:54;99771.19;;;15.81;47.04
8637;BME280;4356;49.068;8.658;2023-12-29T12:54:20;99776.38;;;15.83;47.24
8637;BME280;4356;49.068;8.658;2023-12-29T12:56:46;99768.47;;;15.81;47.26
8637;BME280;4356;49.068;8.658;2023-12-29T12:59:13;99769.09;;;15.83;47.31
8637;BME280;4356;49.068;8.658;2023-12-29T13:01:39;99778.03;;;15.84;47.20
8637;BME280;4356;49.068;8.658;2023-12-29T13:04:05;99780.53;;;15.85;47.31
8637;BME280;4356;49.068;8.658;2023-12-29T13:06:39;99776.38;;;15.83;47.54
8637;BME280;4356;49.068;8.658;2023-12-29T13:09:06;99775.53;;;15.82;47.26
8637;BME280;4356;49.068;8.658;2023-12-29T13:11:37;99784.50;;;15.83;47.11
8637;BME280;4356;49.068;8.658;2023-12-29T13:14:03;99778.25;;;15.82;47.33
8637;BME280;4356;49.068;8.658;2023-12-29T13:16:37;99783.25;;;15.79;47.21
8637;BME280;4356;49.068;8.658;2023-12-29T13:21:54;99791.81;;;15.82;47.18
8637;BME280;4356;49.068;8.658;2023-12-29T13:24:23;99787.84;;;15.85;47.45
8637;BME280;4356;49.068;8.658;2023-12-29T13:27:06;99784.72;;;15.81;46.99
8637;BME280;4356;49.068;8.658;2023-12-29T13:29:34;99786.38;;;15.82;46.74
8637;BME280;4356;49.068;8.658;2023-12-29T13:32:07;99786.16;;;15.84;46.85
8637;BME280;4356;49.068;8.658;2023-12-29T13:34:55;99794.31;;;15.84;46.97
8637;BME280;4356;49.068;8.658;2023-12-29T13:37:36;99775.56;;;15.76;47.17